Spicewood's Hourly Summary for Wednesday, May 16, 2018
Hour Temp
(f)
RH
(%)
Solar Rad.
(MJ/m2)
Rainfall
(in)
Wind
(mph)
5/16/2018 12:00 AM 71 76 0 0 7.82
5/16/2018 1:00 AM 71 83 0 0 7.68
5/16/2018 2:00 AM 69 86 0 0 2.48
5/16/2018 3:00 AM 68 88 0 0 4.7
5/16/2018 4:00 AM 66 95 0 0 2.71
5/16/2018 5:00 AM 65 98 0 0 2.2
5/16/2018 6:00 AM 64 98 0 0 1.36
5/16/2018 7:00 AM 65 98 0.01 0 3.14
5/16/2018 8:00 AM 70 89 0.34 0 2.88
5/16/2018 9:00 AM 74 74 0.73 0 3.38
5/16/2018 10:00 AM 79 72 1.74 0 3.22
5/16/2018 11:00 AM 82 65 1.28 0 2.46
5/16/2018 12:00 PM 85 50 2.68 0 3.18
5/16/2018 1:00 PM 87 45 3.26 0 3.58
5/16/2018 2:00 PM 89 42 3.36 0 3.8
5/16/2018 3:00 PM 91 36 3.25 0 2.79
5/16/2018 4:00 PM 94 31 2.91 0 2.91
5/16/2018 5:00 PM 94 30 1 0 2.79
5/16/2018 6:00 PM 93 30 1.72 0 3.26
5/16/2018 7:00 PM 93 32 1.02 0 2.09
5/16/2018 8:00 PM 91 42 0.25 0 0.67
5/16/2018 9:00 PM 85 56 0.01 0 0.55
5/16/2018 10:00 PM 80 63 0 0 1.13
5/16/2018 11:00 PM 79 65 0 0 0.69
Data Summary 79 64 23.56 0.00 2.98